sensor_id;sensor_type;location;lat;lon;timestamp;P1;durP1;ratioP1;P2;durP2;ratioP2
6898;SDS011;3488;42.616;23.350;2023-03-01T00:00:06;4.90;;;4.50;;
6898;SDS011;3488;42.616;23.350;2023-03-01T00:02:34;6.65;;;4.38;;
6898;SDS011;3488;42.616;23.350;2023-03-01T00:05:01;4.50;;;4.13;;
6898;SDS011;3488;42.616;23.350;2023-03-01T00:07:31;4.50;;;4.18;;
6898;SDS011;3488;42.616;23.350;2023-03-01T00:09:57;8.10;;;5.20;;
6898;SDS011;3488;42.616;23.350;2023-03-01T00:12:25;6.40;;;5.75;;
6898;SDS011;3488;42.616;23.350;2023-03-01T00:14:52;6.10;;;5.50;;
6898;SDS011;3488;42.616;23.350;2023-03-01T00:17:19;6.88;;;5.57;;
6898;SDS011;3488;42.616;23.350;2023-03-01T00:19:46;7.43;;;6.68;;
6898;SDS011;3488;42.616;23.350;2023-03-01T00:22:13;10.15;;;7.82;;
6898;SDS011;3488;42.616;23.350;2023-03-01T00:24:41;12.07;;;8.85;;
6898;SDS011;3488;42.616;23.350;2023-03-01T00:27:08;12.50;;;9.32;;
6898;SDS011;3488;42.616;23.350;2023-03-01T00:29:35;11.20;;;9.30;;
6898;SDS011;3488;42.616;23.350;2023-03-01T00:32:02;13.25;;;9.98;;
6898;SDS011;3488;42.616;23.350;2023-03-01T00:34:29;12.55;;;10.25;;
6898;SDS011;3488;42.616;23.350;2023-03-01T00:36:56;9.63;;;7.95;;
6898;SDS011;3488;42.616;23.350;2023-03-01T00:39:30;4.57;;;4.28;;
6898;SDS011;3488;42.616;23.350;2023-03-01T00:41:59;3.20;;;3.00;;
6898;SDS011;3488;42.616;23.350;2023-03-01T00:44:26;2.85;;;2.65;;
6898;SDS011;3488;42.616;23.350;2023-03-01T00:46:53;2.17;;;2.08;;
6898;SDS011;3488;42.616;23.350;2023-03-01T00:49:20;2.35;;;2.20;;
6898;SDS011;3488;42.616;23.350;2023-03-01T00:51:49;2.00;;;1.90;;
6898;SDS011;3488;42.616;23.350;2023-03-01T00:54:16;2.22;;;2.03;;
6898;SDS011;3488;42.616;23.350;2023-03-01T00:56:43;1.77;;;1.67;;
6898;SDS011;3488;42.616;23.350;2023-03-01T00:59:11;1.60;;;1.50;;
6898;SDS011;3488;42.616;23.350;2023-03-01T01:01:38;1.70;;;1.60;;
6898;SDS011;3488;42.616;23.350;2023-03-01T01:04:06;1.88;;;1.70;;
6898;SDS011;3488;42.616;23.350;2023-03-01T01:06:34;1.80;;;1.70;;
6898;SDS011;3488;42.616;23.350;2023-03-01T01:09:03;1.05;;;1.05;;
6898;SDS011;3488;42.616;23.350;2023-03-01T01:11:32;1.27;;;1.20;;
6898;SDS011;3488;42.616;23.350;2023-03-01T01:14:00;1.30;;;1.30;;
6898;SDS011;3488;42.616;23.350;2023-03-01T01:16:28;1.30;;;1.20;;
6898;SDS011;3488;42.616;23.350;2023-03-01T01:18:56;1.10;;;1.10;;
6898;SDS011;3488;42.616;23.350;2023-03-01T01:21:23;0.90;;;0.90;;
6898;SDS011;3488;42.616;23.350;2023-03-01T01:23:52;1.00;;;1.00;;
6898;SDS011;3488;42.616;23.350;2023-03-01T01:26:20;1.10;;;1.10;;
6898;SDS011;3488;42.616;23.350;2023-03-01T01:28:49;1.20;;;1.20;;
6898;SDS011;3488;42.616;23.350;2023-03-01T01:31:17;2.17;;;2.08;;
6898;SDS011;3488;42.616;23.350;2023-03-01T01:33:46;3.00;;;2.80;;
6898;SDS011;3488;42.616;23.350;2023-03-01T01:36:13;4.20;;;3.80;;
6898;SDS011;3488;42.616;23.350;2023-03-01T01:38:40;4.05;;;3.75;;
6898;SDS011;3488;42.616;23.350;2023-03-01T01:41:08;3.75;;;3.42;;
6898;SDS011;3488;42.616;23.350;2023-03-01T01:43:38;2.67;;;2.50;;
6898;SDS011;3488;42.616;23.350;2023-03-01T01:46:10;2.17;;;2.08;;
6898;SDS011;3488;42.616;23.350;2023-03-01T01:48:48;2.08;;;1.98;;
6898;SDS011;3488;42.616;23.350;2023-03-01T01:51:20;1.63;;;1.52;;
6898;SDS011;3488;42.616;23.350;2023-03-01T01:53:51;1.50;;;1.50;;
6898;SDS011;3488;42.616;23.350;2023-03-01T01:56:21;1.52;;;1.42;;
6898;SDS011;3488;42.616;23.350;2023-03-01T01:58:50;1.10;;;1.10;;
6898;SDS011;3488;42.616;23.350;2023-03-01T02:01:17;1.40;;;1.40;;
6898;SDS011;3488;42.616;23.350;2023-03-01T02:03:45;1.50;;;1.40;;
6898;SDS011;3488;42.616;23.350;2023-03-01T02:06:15;1.63;;;1.55;;
6898;SDS011;3488;42.616;23.350;2023-03-01T02:08:47;2.33;;;2.22;;
6898;SDS011;3488;42.616;23.350;2023-03-01T02:11:15;2.60;;;2.40;;
6898;SDS011;3488;42.616;23.350;2023-03-01T02:13:44;2.47;;;1.92;;
6898;SDS011;3488;42.616;23.350;2023-03-01T02:16:14;3.08;;;2.88;;
6898;SDS011;3488;42.616;23.350;2023-03-01T02:18:42;3.15;;;2.95;;
6898;SDS011;3488;42.616;23.350;2023-03-01T02:21:25;3.03;;;2.83;;
6898;SDS011;3488;42.616;23.350;2023-03-01T02:24:08;2.10;;;2.00;;
6898;SDS011;3488;42.616;23.350;2023-03-01T02:26:45;2.65;;;2.45;;
6898;SDS011;3488;42.616;23.350;2023-03-01T02:29:16;2.80;;;2.60;;
6898;SDS011;3488;42.616;23.350;2023-03-01T02:31:43;2.65;;;2.55;;
6898;SDS011;3488;42.616;23.350;2023-03-01T02:34:12;2.47;;;2.38;;
6898;SDS011;3488;42.616;23.350;2023-03-01T02:36:43;2.13;;;2.03;;
6898;SDS011;3488;42.616;23.350;2023-03-01T02:39:14;2.58;;;2.47;;
6898;SDS011;3488;42.616;23.350;2023-03-01T02:41:45;2.85;;;2.65;;
6898;SDS011;3488;42.616;23.350;2023-03-01T02:44:16;2.00;;;1.95;;
6898;SDS011;3488;42.616;23.350;2023-03-01T02:46:44;2.50;;;2.40;;
6898;SDS011;3488;42.616;23.350;2023-03-01T02:49:20;3.30;;;3.10;;
6898;SDS011;3488;42.616;23.350;2023-03-01T02:51:54;2.65;;;2.50;;
6898;SDS011;3488;42.616;23.350;2023-03-01T02:54:50;3.00;;;2.80;;
6898;SDS011;3488;42.616;23.350;2023-03-01T02:57:25;2.63;;;2.53;;
6898;SDS011;3488;42.616;23.350;2023-03-01T02:59:55;3.20;;;3.00;;
6898;SDS011;3488;42.616;23.350;2023-03-01T03:02:28;3.17;;;2.97;;
6898;SDS011;3488;42.616;23.350;2023-03-01T03:05:06;3.28;;;3.08;;
6898;SDS011;3488;42.616;23.350;2023-03-01T03:07:36;2.80;;;2.60;;
6898;SDS011;3488;42.616;23.350;2023-03-01T03:10:05;3.22;;;3.03;;
6898;SDS011;3488;42.616;23.350;2023-03-01T03:12:34;3.17;;;2.97;;
6898;SDS011;3488;42.616;23.350;2023-03-01T03:15:02;3.35;;;3.15;;
6898;SDS011;3488;42.616;23.350;2023-03-01T03:17:34;4.05;;;3.65;;
6898;SDS011;3488;42.616;23.350;2023-03-01T03:20:01;3.97;;;3.45;;
6898;SDS011;3488;42.616;23.350;2023-03-01T03:22:30;3.00;;;2.80;;
6898;SDS011;3488;42.616;23.350;2023-03-01T03:24:59;3.15;;;2.95;;
6898;SDS011;3488;42.616;23.350;2023-03-01T03:27:27;3.60;;;3.40;;
6898;SDS011;3488;42.616;23.350;2023-03-01T03:29:57;3.50;;;3.20;;
6898;SDS011;3488;42.616;23.350;2023-03-01T03:32:25;3.38;;;3.17;;
6898;SDS011;3488;42.616;23.350;2023-03-01T03:34:52;2.90;;;2.70;;
6898;SDS011;3488;42.616;23.350;2023-03-01T03:37:19;3.35;;;3.15;;
6898;SDS011;3488;42.616;23.350;2023-03-01T03:40:04;2.53;;;2.33;;
6898;SDS011;3488;42.616;23.350;2023-03-01T03:42:40;3.20;;;3.00;;
6898;SDS011;3488;42.616;23.350;2023-03-01T03:45:07;3.35;;;3.05;;
6898;SDS011;3488;42.616;23.350;2023-03-01T03:47:36;3.42;;;2.83;;
6898;SDS011;3488;42.616;23.350;2023-03-01T03:50:03;3.88;;;3.42;;
6898;SDS011;3488;42.616;23.350;2023-03-01T03:52:31;3.17;;;2.97;;
6898;SDS011;3488;42.616;23.350;2023-03-01T03:54:58;3.63;;;3.13;;
6898;SDS011;3488;42.616;23.350;2023-03-01T03:57:25;3.42;;;3.22;;
6898;SDS011;3488;42.616;23.350;2023-03-01T04:00:28;3.70;;;3.40;;
6898;SDS011;3488;42.616;23.350;2023-03-01T04:03:15;5.65;;;3.40;;
6898;SDS011;3488;42.616;23.350;2023-03-01T04:05:43;2.80;;;2.63;;
6898;SDS011;3488;42.616;23.350;2023-03-01T04:08:11;2.92;;;2.72;;
6898;SDS011;3488;42.616;23.350;2023-03-01T04:10:40;2.97;;;2.78;;
6898;SDS011;3488;42.616;23.350;2023-03-01T04:13:11;3.10;;;2.90;;
6898;SDS011;3488;42.616;23.350;2023-03-01T04:15:39;3.15;;;2.85;;
6898;SDS011;3488;42.616;23.350;2023-03-01T04:18:08;3.20;;;3.00;;
6898;SDS011;3488;42.616;23.350;2023-03-01T04:20:40;2.97;;;2.75;;
6898;SDS011;3488;42.616;23.350;2023-03-01T04:23:08;3.15;;;2.85;;
6898;SDS011;3488;42.616;23.350;2023-03-01T04:25:38;3.47;;;3.15;;
6898;SDS011;3488;42.616;23.350;2023-03-01T04:28:06;4.85;;;3.55;;
6898;SDS011;3488;42.616;23.350;2023-03-01T04:30:34;4.40;;;3.00;;
6898;SDS011;3488;42.616;23.350;2023-03-01T04:33:02;3.20;;;3.00;;
6898;SDS011;3488;42.616;23.350;2023-03-01T04:35:30;4.13;;;2.97;;
6898;SDS011;3488;42.616;23.350;2023-03-01T04:37:59;3.15;;;2.95;;
6898;SDS011;3488;42.616;23.350;2023-03-01T04:40:26;2.70;;;2.50;;
6898;SDS011;3488;42.616;23.350;2023-03-01T04:42:53;3.30;;;3.10;;
6898;SDS011;3488;42.616;23.350;2023-03-01T04:45:21;3.95;;;3.45;;
6898;SDS011;3488;42.616;23.350;2023-03-01T04:47:48;3.05;;;2.85;;
6898;SDS011;3488;42.616;23.350;2023-03-01T04:50:17;3.25;;;3.00;;
6898;SDS011;3488;42.616;23.350;2023-03-01T04:52:47;3.97;;;3.67;;
6898;SDS011;3488;42.616;23.350;2023-03-01T04:55:16;3.95;;;3.35;;
6898;SDS011;3488;42.616;23.350;2023-03-01T04:57:43;4.47;;;3.08;;
6898;SDS011;3488;42.616;23.350;2023-03-01T05:00:11;2.95;;;2.83;;
6898;SDS011;3488;42.616;23.350;2023-03-01T05:02:57;2.75;;;2.55;;
6898;SDS011;3488;42.616;23.350;2023-03-01T05:05:26;3.25;;;2.95;;
6898;SDS011;3488;42.616;23.350;2023-03-01T05:07:55;3.42;;;3.22;;
6898;SDS011;3488;42.616;23.350;2023-03-01T05:10:25;3.70;;;3.45;;
6898;SDS011;3488;42.616;23.350;2023-03-01T05:12:54;3.35;;;3.00;;
6898;SDS011;3488;42.616;23.350;2023-03-01T05:15:22;3.45;;;3.15;;
6898;SDS011;3488;42.616;23.350;2023-03-01T05:17:50;3.33;;;3.13;;
6898;SDS011;3488;42.616;23.350;2023-03-01T05:20:17;2.88;;;2.67;;
6898;SDS011;3488;42.616;23.350;2023-03-01T05:22:47;2.85;;;2.40;;
6898;SDS011;3488;42.616;23.350;2023-03-01T05:25:14;3.53;;;2.10;;
6898;SDS011;3488;42.616;23.350;2023-03-01T05:27:43;2.60;;;2.40;;
6898;SDS011;3488;42.616;23.350;2023-03-01T05:30:11;2.28;;;2.10;;
6898;SDS011;3488;42.616;23.350;2023-03-01T05:32:43;2.72;;;2.50;;
6898;SDS011;3488;42.616;23.350;2023-03-01T05:35:13;3.83;;;2.75;;
6898;SDS011;3488;42.616;23.350;2023-03-01T05:37:42;3.63;;;2.10;;
6898;SDS011;3488;42.616;23.350;2023-03-01T05:40:11;2.53;;;1.52;;
6898;SDS011;3488;42.616;23.350;2023-03-01T05:42:46;2.03;;;1.83;;
6898;SDS011;3488;42.616;23.350;2023-03-01T05:45:15;1.00;;;1.00;;
6898;SDS011;3488;42.616;23.350;2023-03-01T05:47:43;1.42;;;1.33;;
6898;SDS011;3488;42.616;23.350;2023-03-01T05:50:12;4.35;;;3.95;;
6898;SDS011;3488;42.616;23.350;2023-03-01T05:52:44;1.98;;;1.88;;
6898;SDS011;3488;42.616;23.350;2023-03-01T05:55:11;2.00;;;1.90;;
6898;SDS011;3488;42.616;23.350;2023-03-01T05:57:39;1.20;;;1.20;;
6898;SDS011;3488;42.616;23.350;2023-03-01T06:00:08;1.15;;;1.15;;
6898;SDS011;3488;42.616;23.350;2023-03-01T06:02:37;0.95;;;0.95;;
6898;SDS011;3488;42.616;23.350;2023-03-01T06:05:05;1.60;;;1.50;;
6898;SDS011;3488;42.616;23.350;2023-03-01T06:07:33;1.40;;;1.30;;
6898;SDS011;3488;42.616;23.350;2023-03-01T06:10:03;1.13;;;1.13;;
6898;SDS011;3488;42.616;23.350;2023-03-01T06:12:31;1.38;;;0.88;;
6898;SDS011;3488;42.616;23.350;2023-03-01T06:14:58;1.00;;;1.00;;
6898;SDS011;3488;42.616;23.350;2023-03-01T06:17:28;1.20;;;1.10;;
6898;SDS011;3488;42.616;23.350;2023-03-01T06:19:56;2.20;;;1.17;;
6898;SDS011;3488;42.616;23.350;2023-03-01T06:22:23;0.88;;;0.88;;
6898;SDS011;3488;42.616;23.350;2023-03-01T06:24:50;0.98;;;0.98;;
6898;SDS011;3488;42.616;23.350;2023-03-01T06:27:17;1.00;;;1.00;;
6898;SDS011;3488;42.616;23.350;2023-03-01T06:29:44;1.17;;;1.10;;
6898;SDS011;3488;42.616;23.350;2023-03-01T06:32:11;1.10;;;1.00;;
6898;SDS011;3488;42.616;23.350;2023-03-01T06:34:39;1.27;;;1.25;;
6898;SDS011;3488;42.616;23.350;2023-03-01T06:37:06;0.80;;;0.80;;
6898;SDS011;3488;42.616;23.350;2023-03-01T06:39:34;1.67;;;0.98;;
6898;SDS011;3488;42.616;23.350;2023-03-01T06:42:05;1.40;;;1.30;;
6898;SDS011;3488;42.616;23.350;2023-03-01T06:44:31;1.17;;;1.17;;
6898;SDS011;3488;42.616;23.350;2023-03-01T06:46:58;1.75;;;1.65;;
6898;SDS011;3488;42.616;23.350;2023-03-01T06:49:26;1.38;;;1.33;;
6898;SDS011;3488;42.616;23.350;2023-03-01T06:51:55;1.65;;;1.55;;
6898;SDS011;3488;42.616;23.350;2023-03-01T06:54:22;1.98;;;1.60;;
6898;SDS011;3488;42.616;23.350;2023-03-01T06:56:50;1.27;;;1.27;;
6898;SDS011;3488;42.616;23.350;2023-03-01T06:59:23;1.25;;;1.20;;
6898;SDS011;3488;42.616;23.350;2023-03-01T07:01:51;1.45;;;1.40;;
6898;SDS011;3488;42.616;23.350;2023-03-01T07:04:27;1.58;;;1.48;;
6898;SDS011;3488;42.616;23.350;2023-03-01T07:06:57;1.40;;;1.30;;
6898;SDS011;3488;42.616;23.350;2023-03-01T07:09:24;1.10;;;1.10;;
6898;SDS011;3488;42.616;23.350;2023-03-01T07:11:51;1.15;;;1.15;;
6898;SDS011;3488;42.616;23.350;2023-03-01T07:14:18;1.20;;;1.20;;
6898;SDS011;3488;42.616;23.350;2023-03-01T07:16:45;1.98;;;1.50;;
6898;SDS011;3488;42.616;23.350;2023-03-01T07:19:12;1.08;;;1.02;;
6898;SDS011;3488;42.616;23.350;2023-03-01T07:21:39;1.55;;;1.45;;
6898;SDS011;3488;42.616;23.350;2023-03-01T07:24:08;1.00;;;1.00;;
6898;SDS011;3488;42.616;23.350;2023-03-01T07:26:35;1.17;;;1.17;;
6898;SDS011;3488;42.616;23.350;2023-03-01T07:29:02;1.10;;;1.10;;
6898;SDS011;3488;42.616;23.350;2023-03-01T07:31:31;1.60;;;1.50;;
6898;SDS011;3488;42.616;23.350;2023-03-01T07:33:58;1.50;;;1.40;;
6898;SDS011;3488;42.616;23.350;2023-03-01T07:36:25;1.38;;;1.38;;
6898;SDS011;3488;42.616;23.350;2023-03-01T07:38:52;3.92;;;2.00;;
6898;SDS011;3488;42.616;23.350;2023-03-01T07:41:22;2.10;;;2.00;;
6898;SDS011;3488;42.616;23.350;2023-03-01T07:43:49;3.42;;;3.22;;
6898;SDS011;3488;42.616;23.350;2023-03-01T07:46:16;6.85;;;5.30;;
6898;SDS011;3488;42.616;23.350;2023-03-01T07:48:44;2.72;;;2.53;;
6898;SDS011;3488;42.616;23.350;2023-03-01T07:51:11;1.95;;;1.85;;
6898;SDS011;3488;42.616;23.350;2023-03-01T07:53:38;1.98;;;1.88;;
6898;SDS011;3488;42.616;23.350;2023-03-01T07:56:06;1.70;;;1.60;;
6898;SDS011;3488;42.616;23.350;2023-03-01T07:58:36;2.90;;;1.65;;
6898;SDS011;3488;42.616;23.350;2023-03-01T08:01:04;1.63;;;1.52;;
6898;SDS011;3488;42.616;23.350;2023-03-01T08:03:33;3.28;;;3.08;;
6898;SDS011;3488;42.616;23.350;2023-03-01T08:06:01;3.10;;;2.80;;
6898;SDS011;3488;42.616;23.350;2023-03-01T08:08:29;2.30;;;2.10;;
6898;SDS011;3488;42.616;23.350;2023-03-01T08:10:57;2.00;;;1.90;;
6898;SDS011;3488;42.616;23.350;2023-03-01T08:13:25;2.45;;;2.35;;
6898;SDS011;3488;42.616;23.350;2023-03-01T08:15:54;2.80;;;2.60;;
6898;SDS011;3488;42.616;23.350;2023-03-01T08:18:21;2.90;;;2.70;;
6898;SDS011;3488;42.616;23.350;2023-03-01T08:20:48;2.47;;;2.38;;
6898;SDS011;3488;42.616;23.350;2023-03-01T08:23:15;2.25;;;2.15;;
6898;SDS011;3488;42.616;23.350;2023-03-01T08:25:42;2.97;;;2.80;;
6898;SDS011;3488;42.616;23.350;2023-03-01T08:28:09;2.97;;;2.75;;
6898;SDS011;3488;42.616;23.350;2023-03-01T08:30:36;2.72;;;2.53;;
6898;SDS011;3488;42.616;23.350;2023-03-01T08:33:04;2.97;;;2.78;;
6898;SDS011;3488;42.616;23.350;2023-03-01T08:35:31;3.25;;;3.00;;
6898;SDS011;3488;42.616;23.350;2023-03-01T08:37:58;2.42;;;2.30;;
6898;SDS011;3488;42.616;23.350;2023-03-01T08:40:25;3.13;;;2.80;;
6898;SDS011;3488;42.616;23.350;2023-03-01T08:42:53;2.95;;;2.75;;
6898;SDS011;3488;42.616;23.350;2023-03-01T08:45:19;2.47;;;2.28;;
6898;SDS011;3488;42.616;23.350;2023-03-01T08:47:47;2.53;;;2.33;;
6898;SDS011;3488;42.616;23.350;2023-03-01T08:50:15;2.17;;;2.08;;
6898;SDS011;3488;42.616;23.350;2023-03-01T08:52:42;2.33;;;2.22;;
6898;SDS011;3488;42.616;23.350;2023-03-01T08:55:09;2.33;;;2.10;;
6898;SDS011;3488;42.616;23.350;2023-03-01T08:57:36;2.05;;;1.95;;
6898;SDS011;3488;42.616;23.350;2023-03-01T09:00:03;3.28;;;3.08;;
6898;SDS011;3488;42.616;23.350;2023-03-01T09:02:33;5.00;;;4.10;;
6898;SDS011;3488;42.616;23.350;2023-03-01T09:05:00;2.88;;;2.67;;
6898;SDS011;3488;42.616;23.350;2023-03-01T09:07:28;4.07;;;3.78;;
6898;SDS011;3488;42.616;23.350;2023-03-01T09:09:55;3.88;;;3.50;;
6898;SDS011;3488;42.616;23.350;2023-03-01T09:12:22;4.40;;;3.42;;
6898;SDS011;3488;42.616;23.350;2023-03-01T09:14:50;2.72;;;2.53;;
6898;SDS011;3488;42.616;23.350;2023-03-01T09:17:17;4.93;;;3.08;;
6898;SDS011;3488;42.616;23.350;2023-03-01T09:19:46;3.00;;;2.80;;
6898;SDS011;3488;42.616;23.350;2023-03-01T09:22:14;3.45;;;3.25;;
6898;SDS011;3488;42.616;23.350;2023-03-01T09:24:42;5.30;;;2.92;;
6898;SDS011;3488;42.616;23.350;2023-03-01T09:27:10;3.40;;;3.10;;
6898;SDS011;3488;42.616;23.350;2023-03-01T09:29:37;4.60;;;3.88;;
6898;SDS011;3488;42.616;23.350;2023-03-01T09:32:05;2.95;;;2.60;;
6898;SDS011;3488;42.616;23.350;2023-03-01T09:34:33;2.28;;;2.17;;
6898;SDS011;3488;42.616;23.350;2023-03-01T09:37:23;2.60;;;2.40;;
6898;SDS011;3488;42.616;23.350;2023-03-01T09:39:52;2.33;;;2.13;;
6898;SDS011;3488;42.616;23.350;2023-03-01T09:42:19;2.90;;;2.70;;
6898;SDS011;3488;42.616;23.350;2023-03-01T09:44:48;2.50;;;2.40;;
6898;SDS011;3488;42.616;23.350;2023-03-01T09:47:18;2.90;;;2.53;;
6898;SDS011;3488;42.616;23.350;2023-03-01T09:49:50;2.38;;;2.28;;
6898;SDS011;3488;42.616;23.350;2023-03-01T09:52:26;2.50;;;2.38;;
6898;SDS011;3488;42.616;23.350;2023-03-01T09:55:01;2.88;;;2.72;;
6898;SDS011;3488;42.616;23.350;2023-03-01T09:57:38;2.45;;;2.35;;
6898;SDS011;3488;42.616;23.350;2023-03-01T10:00:15;3.03;;;2.83;;
6898;SDS011;3488;42.616;23.350;2023-03-01T10:02:49;3.10;;;2.90;;
6898;SDS011;3488;42.616;23.350;2023-03-01T10:05:31;5.32;;;3.72;;
6898;SDS011;3488;42.616;23.350;2023-03-01T10:11:03;2.25;;;2.15;;
6898;SDS011;3488;42.616;23.350;2023-03-01T10:13:33;3.13;;;2.92;;
6898;SDS011;3488;42.616;23.350;2023-03-01T10:16:11;2.42;;;2.33;;
6898;SDS011;3488;42.616;23.350;2023-03-01T10:18:41;2.80;;;2.60;;
6898;SDS011;3488;42.616;23.350;2023-03-01T10:21:15;2.83;;;2.67;;
6898;SDS011;3488;42.616;23.350;2023-03-01T10:23:44;2.83;;;2.63;;
6898;SDS011;3488;42.616;23.350;2023-03-01T10:26:21;3.00;;;2.80;;
6898;SDS011;3488;42.616;23.350;2023-03-01T10:29:01;3.40;;;3.10;;
6898;SDS011;3488;42.616;23.350;2023-03-01T10:31:34;3.25;;;2.97;;
6898;SDS011;3488;42.616;23.350;2023-03-01T10:34:08;3.47;;;3.03;;
6898;SDS011;3488;42.616;23.350;2023-03-01T10:36:38;3.20;;;3.00;;
6898;SDS011;3488;42.616;23.350;2023-03-01T10:39:10;3.42;;;3.13;;
6898;SDS011;3488;42.616;23.350;2023-03-01T10:41:51;2.92;;;2.72;;
6898;SDS011;3488;42.616;23.350;2023-03-01T10:44:40;3.35;;;3.15;;
6898;SDS011;3488;42.616;23.350;2023-03-01T10:47:14;2.92;;;2.70;;
6898;SDS011;3488;42.616;23.350;2023-03-01T10:49:59;3.00;;;2.80;;
6898;SDS011;3488;42.616;23.350;2023-03-01T10:52:28;3.05;;;2.85;;
6898;SDS011;3488;42.616;23.350;2023-03-01T10:54:58;3.50;;;3.30;;
6898;SDS011;3488;42.616;23.350;2023-03-01T10:57:33;4.70;;;3.45;;
6898;SDS011;3488;42.616;23.350;2023-03-01T11:03:01;4.60;;;3.88;;
6898;SDS011;3488;42.616;23.350;2023-03-01T11:05:36;4.88;;;3.97;;
6898;SDS011;3488;42.616;23.350;2023-03-01T11:08:03;3.47;;;3.17;;
6898;SDS011;3488;42.616;23.350;2023-03-01T11:10:31;3.00;;;2.80;;
6898;SDS011;3488;42.616;23.350;2023-03-01T11:13:08;3.00;;;2.80;;
6898;SDS011;3488;42.616;23.350;2023-03-01T11:15:41;3.05;;;2.85;;
6898;SDS011;3488;42.616;23.350;2023-03-01T11:18:18;6.10;;;3.88;;
6898;SDS011;3488;42.616;23.350;2023-03-01T11:20:46;5.50;;;3.92;;
6898;SDS011;3488;42.616;23.350;2023-03-01T11:23:16;3.53;;;3.33;;
6898;SDS011;3488;42.616;23.350;2023-03-01T11:25:47;3.40;;;3.13;;
6898;SDS011;3488;42.616;23.350;2023-03-01T11:28:19;3.35;;;2.85;;
6898;SDS011;3488;42.616;23.350;2023-03-01T11:30:48;3.20;;;3.00;;
6898;SDS011;3488;42.616;23.350;2023-03-01T11:33:21;3.15;;;2.95;;
6898;SDS011;3488;42.616;23.350;2023-03-01T11:36:00;3.60;;;3.30;;
6898;SDS011;3488;42.616;23.350;2023-03-01T11:38:32;3.70;;;3.50;;
6898;SDS011;3488;42.616;23.350;2023-03-01T11:41:04;4.15;;;3.65;;
6898;SDS011;3488;42.616;23.350;2023-03-01T11:43:37;3.88;;;3.58;;
6898;SDS011;3488;42.616;23.350;2023-03-01T11:46:29;2.92;;;2.80;;
6898;SDS011;3488;42.616;23.350;2023-03-01T11:49:13;3.78;;;3.40;;
6898;SDS011;3488;42.616;23.350;2023-03-01T11:51:56;4.15;;;3.78;;
6898;SDS011;3488;42.616;23.350;2023-03-01T11:54:37;4.03;;;3.63;;
6898;SDS011;3488;42.616;23.350;2023-03-01T11:57:25;3.72;;;3.38;;
6898;SDS011;3488;42.616;23.350;2023-03-01T12:00:18;3.72;;;3.35;;
6898;SDS011;3488;42.616;23.350;2023-03-01T12:02:57;3.90;;;3.70;;
6898;SDS011;3488;42.616;23.350;2023-03-01T12:09:02;3.97;;;3.67;;
6898;SDS011;3488;42.616;23.350;2023-03-01T12:11:48;4.28;;;3.88;;
6898;SDS011;3488;42.616;23.350;2023-03-01T12:14:34;4.95;;;3.60;;
6898;SDS011;3488;42.616;23.350;2023-03-01T12:17:24;4.90;;;4.45;;
6898;SDS011;3488;42.616;23.350;2023-03-01T12:20:03;4.25;;;3.75;;
6898;SDS011;3488;42.616;23.350;2023-03-01T12:22:42;3.08;;;2.88;;
6898;SDS011;3488;42.616;23.350;2023-03-01T12:25:25;3.50;;;3.30;;
6898;SDS011;3488;42.616;23.350;2023-03-01T12:31:05;3.65;;;3.38;;
6898;SDS011;3488;42.616;23.350;2023-03-01T12:33:48;3.25;;;3.05;;
6898;SDS011;3488;42.616;23.350;2023-03-01T12:36:39;3.03;;;2.72;;
6898;SDS011;3488;42.616;23.350;2023-03-01T12:39:24;3.00;;;2.80;;
6898;SDS011;3488;42.616;23.350;2023-03-01T12:42:04;3.00;;;2.80;;
6898;SDS011;3488;42.616;23.350;2023-03-01T12:44:44;3.35;;;3.15;;
6898;SDS011;3488;42.616;23.350;2023-03-01T12:47:26;2.60;;;2.50;;
6898;SDS011;3488;42.616;23.350;2023-03-01T12:50:12;2.78;;;2.58;;
6898;SDS011;3488;42.616;23.350;2023-03-01T12:52:46;5.45;;;3.00;;
6898;SDS011;3488;42.616;23.350;2023-03-01T12:55:21;4.28;;;3.88;;
6898;SDS011;3488;42.616;23.350;2023-03-01T12:57:56;3.13;;;2.92;;
6898;SDS011;3488;42.616;23.350;2023-03-01T13:00:43;3.95;;;3.65;;
6898;SDS011;3488;42.616;23.350;2023-03-01T13:03:19;3.50;;;3.30;;
6898;SDS011;3488;42.616;23.350;2023-03-01T13:06:00;3.22;;;3.03;;
6898;SDS011;3488;42.616;23.350;2023-03-01T13:08:36;3.40;;;3.20;;
6898;SDS011;3488;42.616;23.350;2023-03-01T13:11:18;3.03;;;2.83;;
6898;SDS011;3488;42.616;23.350;2023-03-01T13:13:46;3.20;;;2.97;;
6898;SDS011;3488;42.616;23.350;2023-03-01T13:16:22;3.60;;;3.40;;
6898;SDS011;3488;42.616;23.350;2023-03-01T13:19:07;3.00;;;2.88;;
6898;SDS011;3488;42.616;23.350;2023-03-01T13:21:40;3.38;;;3.17;;
6898;SDS011;3488;42.616;23.350;2023-03-01T13:27:09;10.10;;;6.28;;
6898;SDS011;3488;42.616;23.350;2023-03-01T13:29:51;6.82;;;4.88;;
6898;SDS011;3488;42.616;23.350;2023-03-01T13:32:19;5.28;;;4.47;;
6898;SDS011;3488;42.616;23.350;2023-03-01T13:34:49;4.05;;;3.75;;
6898;SDS011;3488;42.616;23.350;2023-03-01T13:43:34;3.63;;;3.30;;
6898;SDS011;3488;42.616;23.350;2023-03-01T13:46:07;3.17;;;2.83;;
6898;SDS011;3488;42.616;23.350;2023-03-01T13:48:36;3.63;;;3.33;;
6898;SDS011;3488;42.616;23.350;2023-03-01T13:51:05;3.60;;;3.30;;
6898;SDS011;3488;42.616;23.350;2023-03-01T13:53:37;3.22;;;3.03;;
6898;SDS011;3488;42.616;23.350;2023-03-01T13:56:08;4.57;;;3.90;;
6898;SDS011;3488;42.616;23.350;2023-03-01T13:58:46;4.63;;;3.10;;
6898;SDS011;3488;42.616;23.350;2023-03-01T14:01:25;3.53;;;3.22;;
6898;SDS011;3488;42.616;23.350;2023-03-01T14:03:54;3.20;;;2.90;;
6898;SDS011;3488;42.616;23.350;2023-03-01T14:06:23;3.67;;;3.38;;
6898;SDS011;3488;42.616;23.350;2023-03-01T14:09:00;3.55;;;3.28;;
6898;SDS011;3488;42.616;23.350;2023-03-01T14:14:40;3.67;;;3.38;;
6898;SDS011;3488;42.616;23.350;2023-03-01T14:17:18;3.45;;;3.15;;
6898;SDS011;3488;42.616;23.350;2023-03-01T14:20:09;8.35;;;3.40;;
6898;SDS011;3488;42.616;23.350;2023-03-01T14:22:42;3.20;;;3.00;;
6898;SDS011;3488;42.616;23.350;2023-03-01T14:25:23;4.53;;;3.78;;
6898;SDS011;3488;42.616;23.350;2023-03-01T14:27:56;3.83;;;3.42;;
6898;SDS011;3488;42.616;23.350;2023-03-01T14:30:25;3.22;;;2.92;;
6898;SDS011;3488;42.616;23.350;2023-03-01T14:32:58;3.25;;;3.05;;
6898;SDS011;3488;42.616;23.350;2023-03-01T14:35:26;3.13;;;2.92;;
6898;SDS011;3488;42.616;23.350;2023-03-01T14:37:56;3.25;;;3.00;;
6898;SDS011;3488;42.616;23.350;2023-03-01T14:40:25;3.30;;;3.05;;
6898;SDS011;3488;42.616;23.350;2023-03-01T14:42:55;2.67;;;2.58;;
6898;SDS011;3488;42.616;23.350;2023-03-01T14:45:26;3.65;;;2.70;;
6898;SDS011;3488;42.616;23.350;2023-03-01T14:47:54;2.88;;;2.70;;
6898;SDS011;3488;42.616;23.350;2023-03-01T14:50:26;2.90;;;2.70;;
6898;SDS011;3488;42.616;23.350;2023-03-01T14:52:55;3.45;;;3.25;;
6898;SDS011;3488;42.616;23.350;2023-03-01T14:55:33;2.63;;;2.53;;
6898;SDS011;3488;42.616;23.350;2023-03-01T14:58:11;3.70;;;3.38;;
6898;SDS011;3488;42.616;23.350;2023-03-01T15:00:42;4.82;;;3.92;;
6898;SDS011;3488;42.616;23.350;2023-03-01T15:03:17;4.65;;;4.22;;
6898;SDS011;3488;42.616;23.350;2023-03-01T15:05:50;6.95;;;5.53;;
6898;SDS011;3488;42.616;23.350;2023-03-01T15:08:19;6.18;;;5.10;;
6898;SDS011;3488;42.616;23.350;2023-03-01T15:10:57;5.00;;;4.40;;
6898;SDS011;3488;42.616;23.350;2023-03-01T15:13:29;3.88;;;3.55;;
6898;SDS011;3488;42.616;23.350;2023-03-01T15:18:44;3.95;;;3.65;;
6898;SDS011;3488;42.616;23.350;2023-03-01T15:21:15;4.10;;;3.83;;
6898;SDS011;3488;42.616;23.350;2023-03-01T15:23:47;4.25;;;3.65;;
6898;SDS011;3488;42.616;23.350;2023-03-01T15:26:22;5.03;;;3.65;;
6898;SDS011;3488;42.616;23.350;2023-03-01T15:28:52;4.18;;;3.30;;
6898;SDS011;3488;42.616;23.350;2023-03-01T15:31:23;3.67;;;3.35;;
6898;SDS011;3488;42.616;23.350;2023-03-01T15:34:04;3.72;;;3.53;;
6898;SDS011;3488;42.616;23.350;2023-03-01T15:36:42;3.42;;;3.10;;
6898;SDS011;3488;42.616;23.350;2023-03-01T15:42:10;5.63;;;4.53;;
6898;SDS011;3488;42.616;23.350;2023-03-01T15:44:39;6.93;;;4.88;;
6898;SDS011;3488;42.616;23.350;2023-03-01T15:49:56;4.25;;;3.88;;
6898;SDS011;3488;42.616;23.350;2023-03-01T15:52:25;4.20;;;3.63;;
6898;SDS011;3488;42.616;23.350;2023-03-01T15:54:56;3.90;;;3.47;;
6898;SDS011;3488;42.616;23.350;2023-03-01T15:57:27;4.60;;;4.20;;